الصفحة الرئيسية
METAR-TAF:

METAR-TAF

مطار :

كوكشيتو, كازاخستان

دائرة عرض: 53-19-48N, خط طول: 069-35-48E, ارتفاع: 270 متر

مراقبة الطقس الحالي

تاريخ ووقت الإصدار 3ساعات و 10 دقيقة قبل الساعة 14:00UTC
ريح 8 عقدة من الغرب/الشمال الغربي, الاتجاه يتراوح بين الغرب و الشمال
درجة الحرارة -3°درجة مئوية
الرطوبة 100%
ضغط 1016 hPa
الرؤية: 1900 متر
ملبد بالغيوم على ارتفاع 1200 قدم, مزنة ركامية.
زخات ثلجية

METAR: UACK 171400Z 29004MPS 280V010 1900 R20/1900 SHSN OVC012CB M03/M03 Q1016 R20/850250 NOSIG RMK QFE738/0984

زمن: 23:10 (17:10 UTC)

توقعات

تاريخ ووقت الإصدار 9ساعات و 10 دقيقة قبل الساعة 08:00UTC
التوقعات صالحة من17 الساعة 09 UTC إلى 17 الساعة 18 UTC
ريح 14 عقدة من الغرب
الرؤية: 5000 متر
غيوم مفككة على ارتفاع 1500 قدم, مزنة ركامية.
غيوم مفككة على ارتفاع 10000 قدم
زخات ثلجية خفيفة
مؤقت
من 17 الساعة 09 UTC إلى 17 الساعة 16 UTC
ريح 19 عقدة من الغرب/الشمال الغربي تتزايد حتى 29 عقدة
الرؤية: 1500 متر
غيوم مفككة على ارتفاع 700 قدم
زخات ثلجية, هبوب الثلوج

TAF: UACK 170800Z 1709/1718 26007MPS 5000 -SHSN BKN015CB BKN100 TEMPO 1709/1716 29010G15MPS 1500 SHSN BLSN BKN007

أرصاد الطقس والتوقعات من أكثر من 4000 مطار (تقارير الطقس للمطار METAR والتنبؤ بالطقس بالمطارTAF).

المحطات المتاحة هي النقط الصفراء والحمراء على الخريطة.

حرك المؤشر فوق النقطة لمعرفة اسم المحطة.

ثم انقر لمعرفة أرصاد وتوقعات الطقس.

لتغيير الخارطة: اضغط على الأزرار الخضراء مع رمز الصليب الأسود للتكبير. على الزر الأخضر مع شرطة للتصغير، أو على الأسهم الخضراء للخرائط المجاورة.


METAR-TAF: